sensor_id;sensor_type;location;lat;lon;timestamp;pressure;altitude;pressure_sealevel;temperature;humidity
76050;BME280;64967;50.234;19.224;2023-04-16T00:01:08;98041.91;;;5.28;100.00
76050;BME280;64967;50.234;19.224;2023-04-16T00:03:35;98045.44;;;5.28;100.00
76050;BME280;64967;50.234;19.224;2023-04-16T00:06:09;98035.38;;;5.30;100.00
76050;BME280;64967;50.234;19.224;2023-04-16T00:08:52;98037.84;;;5.32;100.00
76050;BME280;64967;50.234;19.224;2023-04-16T00:11:41;98027.13;;;5.32;100.00
76050;BME280;64967;50.234;19.224;2023-04-16T00:14:31;98040.53;;;5.32;100.00
76050;BME280;64967;50.234;19.224;2023-04-16T00:17:16;98036.56;;;5.28;100.00
76050;BME280;64967;50.234;19.224;2023-04-16T00:20:05;98040.16;;;5.20;100.00
76050;BME280;64967;50.234;19.224;2023-04-16T00:22:47;98036.81;;;5.18;100.00
76050;BME280;64967;50.234;19.224;2023-04-16T00:25:29;98042.06;;;5.12;100.00
76050;BME280;64967;50.234;19.224;2023-04-16T00:27:55;98044.44;;;5.07;100.00
76050;BME280;64967;50.234;19.224;2023-04-16T00:30:22;98038.34;;;4.98;100.00
76050;BME280;64967;50.234;19.224;2023-04-16T00:32:49;98043.03;;;4.96;100.00
76050;BME280;64967;50.234;19.224;2023-04-16T00:35:16;98041.72;;;4.92;100.00
76050;BME280;64967;50.234;19.224;2023-04-16T00:37:43;98040.03;;;4.91;100.00
76050;BME280;64967;50.234;19.224;2023-04-16T00:40:11;98036.06;;;4.87;100.00
76050;BME280;64967;50.234;19.224;2023-04-16T00:42:38;98041.41;;;4.87;100.00
76050;BME280;64967;50.234;19.224;2023-04-16T00:45:05;98048.81;;;4.85;100.00
76050;BME280;64967;50.234;19.224;2023-04-16T00:47:32;98062.53;;;4.82;100.00
76050;BME280;64967;50.234;19.224;2023-04-16T00:50:00;98060.69;;;4.82;100.00
76050;BME280;64967;50.234;19.224;2023-04-16T00:52:28;98062.53;;;4.82;100.00
76050;BME280;64967;50.234;19.224;2023-04-16T00:54:55;98057.19;;;4.82;100.00
76050;BME280;64967;50.234;19.224;2023-04-16T00:57:23;98067.41;;;4.78;100.00
76050;BME280;64967;50.234;19.224;2023-04-16T00:59:50;98056.25;;;4.75;100.00
76050;BME280;64967;50.234;19.224;2023-04-16T01:02:17;98071.84;;;4.71;100.00
76050;BME280;64967;50.234;19.224;2023-04-16T01:04:45;98068.00;;;4.66;100.00
76050;BME280;64967;50.234;19.224;2023-04-16T01:07:21;98068.53;;;4.61;100.00
76050;BME280;64967;50.234;19.224;2023-04-16T01:10:12;98010.72;;;4.21;100.00
76050;BME280;64967;50.234;19.224;2023-04-16T01:12:52;98069.44;;;4.54;100.00
76050;BME280;64967;50.234;19.224;2023-04-16T01:15:39;98067.44;;;4.47;100.00
76050;BME280;64967;50.234;19.224;2023-04-16T01:18:27;98075.13;;;4.50;100.00
76050;BME280;64967;50.234;19.224;2023-04-16T01:21:12;98072.63;;;4.49;100.00
76050;BME280;64967;50.234;19.224;2023-04-16T01:23:52;98073.94;;;4.53;100.00
76050;BME280;64967;50.234;19.224;2023-04-16T01:26:19;98068.13;;;4.49;100.00
76050;BME280;64967;50.234;19.224;2023-04-16T01:28:46;98070.13;;;4.47;100.00
76050;BME280;64967;50.234;19.224;2023-04-16T01:31:13;98072.50;;;4.42;100.00
76050;BME280;64967;50.234;19.224;2023-04-16T01:33:39;98077.84;;;4.42;100.00
76050;BME280;64967;50.234;19.224;2023-04-16T01:36:06;98062.84;;;4.33;100.00
76050;BME280;64967;50.234;19.224;2023-04-16T01:38:33;98082.56;;;4.40;100.00
76050;BME280;64967;50.234;19.224;2023-04-16T01:41:01;98083.19;;;4.42;100.00
76050;BME280;64967;50.234;19.224;2023-04-16T01:43:28;98089.75;;;4.40;100.00
76050;BME280;64967;50.234;19.224;2023-04-16T01:46:11;98095.09;;;4.40;100.00
76050;BME280;64967;50.234;19.224;2023-04-16T01:48:39;98092.22;;;4.41;100.00
76050;BME280;64967;50.234;19.224;2023-04-16T01:51:07;98092.59;;;4.38;100.00
76050;BME280;64967;50.234;19.224;2023-04-16T01:53:36;98093.06;;;4.42;100.00
76050;BME280;64967;50.234;19.224;2023-04-16T01:56:03;98093.06;;;4.42;100.00
76050;BME280;64967;50.234;19.224;2023-04-16T01:58:31;98077.41;;;4.31;100.00
76050;BME280;64967;50.234;19.224;2023-04-16T02:00:59;98093.06;;;4.42;100.00
76050;BME280;64967;50.234;19.224;2023-04-16T02:03:26;98101.44;;;4.39;100.00
76050;BME280;64967;50.234;19.224;2023-04-16T02:05:54;98096.78;;;4.33;100.00
76050;BME280;64967;50.234;19.224;2023-04-16T02:08:21;98092.63;;;4.30;100.00
76050;BME280;64967;50.234;19.224;2023-04-16T02:10:49;98093.28;;;4.32;100.00
76050;BME280;64967;50.234;19.224;2023-04-16T02:13:16;98095.94;;;4.32;100.00
76050;BME280;64967;50.234;19.224;2023-04-16T02:15:49;98095.94;;;4.32;100.00
76050;BME280;64967;50.234;19.224;2023-04-16T02:18:16;98102.34;;;4.31;100.00
76050;BME280;64967;50.234;19.224;2023-04-16T02:20:45;98108.00;;;4.28;100.00
76050;BME280;64967;50.234;19.224;2023-04-16T02:23:12;98082.66;;;4.16;100.00
76050;BME280;64967;50.234;19.224;2023-04-16T02:25:45;98100.69;;;4.22;100.00
76050;BME280;64967;50.234;19.224;2023-04-16T02:28:16;98108.38;;;4.25;100.00
76050;BME280;64967;50.234;19.224;2023-04-16T02:30:43;98100.34;;;4.25;100.00
76050;BME280;64967;50.234;19.224;2023-04-16T02:33:11;98108.22;;;4.27;100.00
76050;BME280;64967;50.234;19.224;2023-04-16T02:35:38;98103.03;;;4.25;100.00
76050;BME280;64967;50.234;19.224;2023-04-16T02:38:06;98101.66;;;4.29;100.00
76050;BME280;64967;50.234;19.224;2023-04-16T02:40:33;98092.84;;;4.21;100.00
76050;BME280;64967;50.234;19.224;2023-04-16T02:43:01;98105.53;;;4.27;100.00
76050;BME280;64967;50.234;19.224;2023-04-16T02:45:28;98114.06;;;4.22;100.00
76050;BME280;64967;50.234;19.224;2023-04-16T02:47:57;98117.47;;;4.08;100.00
76050;BME280;64967;50.234;19.224;2023-04-16T02:50:24;98119.50;;;3.98;100.00
76050;BME280;64967;50.234;19.224;2023-04-16T02:52:51;98127.03;;;3.94;100.00
76050;BME280;64967;50.234;19.224;2023-04-16T02:55:18;98116.81;;;3.98;100.00
76050;BME280;64967;50.234;19.224;2023-04-16T02:57:45;98124.16;;;4.04;100.00
76050;BME280;64967;50.234;19.224;2023-04-16T03:00:12;98118.63;;;4.05;100.00
76050;BME280;64967;50.234;19.224;2023-04-16T03:02:39;98122.34;;;4.04;100.00
76050;BME280;64967;50.234;19.224;2023-04-16T03:05:06;98118.97;;;4.02;100.00
76050;BME280;64967;50.234;19.224;2023-04-16T03:07:33;98121.53;;;3.96;100.00
76050;BME280;64967;50.234;19.224;2023-04-16T03:10:01;98132.53;;;3.93;100.00
76050;BME280;64967;50.234;19.224;2023-04-16T03:12:28;98132.53;;;3.93;100.00
76050;BME280;64967;50.234;19.224;2023-04-16T03:14:54;98143.59;;;3.90;100.00
76050;BME280;64967;50.234;19.224;2023-04-16T03:17:21;98152.25;;;3.92;100.00
76050;BME280;64967;50.234;19.224;2023-04-16T03:19:48;98150.78;;;3.89;100.00
76050;BME280;64967;50.234;19.224;2023-04-16T03:22:16;98157.44;;;3.93;100.00
76050;BME280;64967;50.234;19.224;2023-04-16T03:24:43;98173.66;;;4.00;100.00
76050;BME280;64967;50.234;19.224;2023-04-16T03:27:10;98162.63;;;4.03;100.00
76050;BME280;64967;50.234;19.224;2023-04-16T03:29:37;98166.09;;;4.12;100.00
76050;BME280;64967;50.234;19.224;2023-04-16T03:32:04;98161.25;;;4.15;100.00
76050;BME280;64967;50.234;19.224;2023-04-16T03:34:31;98169.59;;;4.20;100.00
76050;BME280;64967;50.234;19.224;2023-04-16T03:36:58;98177.94;;;4.25;100.00
76050;BME280;64967;50.234;19.224;2023-04-16T03:39:25;98177.59;;;4.28;100.00
76050;BME280;64967;50.234;19.224;2023-04-16T03:41:52;98172.91;;;4.30;100.00
76050;BME280;64967;50.234;19.224;2023-04-16T03:44:19;98189.81;;;4.31;100.00
76050;BME280;64967;50.234;19.224;2023-04-16T03:46:46;98182.44;;;4.33;100.00
76050;BME280;64967;50.234;19.224;2023-04-16T03:49:13;98183.47;;;4.32;100.00
76050;BME280;64967;50.234;19.224;2023-04-16T03:51:40;98177.94;;;4.25;100.00
76050;BME280;64967;50.234;19.224;2023-04-16T03:54:07;98169.06;;;4.25;100.00
76050;BME280;64967;50.234;19.224;2023-04-16T03:56:34;98185.25;;;4.39;100.00
76050;BME280;64967;50.234;19.224;2023-04-16T03:59:01;98185.75;;;4.43;100.00
76050;BME280;64967;50.234;19.224;2023-04-16T04:01:28;98191.59;;;4.46;100.00
76050;BME280;64967;50.234;19.224;2023-04-16T04:03:55;98189.59;;;4.48;100.00
76050;BME280;64967;50.234;19.224;2023-04-16T04:06:22;98193.94;;;4.49;100.00
76050;BME280;64967;50.234;19.224;2023-04-16T04:08:49;98205.97;;;4.54;100.00
76050;BME280;64967;50.234;19.224;2023-04-16T04:11:16;98193.41;;;4.54;100.00
76050;BME280;64967;50.234;19.224;2023-04-16T04:13:43;98199.91;;;4.60;100.00
76050;BME280;64967;50.234;19.224;2023-04-16T04:16:10;98209.78;;;4.67;100.00
76050;BME280;64967;50.234;19.224;2023-04-16T04:18:37;98201.53;;;4.69;100.00
76050;BME280;64967;50.234;19.224;2023-04-16T04:21:07;98211.88;;;4.80;100.00
76050;BME280;64967;50.234;19.224;2023-04-16T04:23:35;98214.88;;;4.85;100.00
76050;BME280;64967;50.234;19.224;2023-04-16T04:26:02;98216.56;;;4.86;100.00
76050;BME280;64967;50.234;19.224;2023-04-16T04:28:32;98222.72;;;4.94;100.00
76050;BME280;64967;50.234;19.224;2023-04-16T04:31:00;98226.50;;;5.00;100.00
76050;BME280;64967;50.234;19.224;2023-04-16T04:33:27;98228.84;;;5.03;100.00
76050;BME280;64967;50.234;19.224;2023-04-16T04:35:54;98242.22;;;5.11;100.00
76050;BME280;64967;50.234;19.224;2023-04-16T04:38:21;98225.28;;;5.11;100.00
76050;BME280;64967;50.234;19.224;2023-04-16T04:40:51;98243.00;;;5.20;100.00
76050;BME280;64967;50.234;19.224;2023-04-16T04:43:21;98247.16;;;5.22;100.00
76050;BME280;64967;50.234;19.224;2023-04-16T04:45:48;98245.63;;;5.28;100.00
76050;BME280;64967;50.234;19.224;2023-04-16T04:48:15;98253.13;;;5.32;100.00
76050;BME280;64967;50.234;19.224;2023-04-16T04:50:43;98255.28;;;5.37;100.00
76050;BME280;64967;50.234;19.224;2023-04-16T04:53:11;98266.31;;;5.42;100.00
76050;BME280;64967;50.234;19.224;2023-04-16T04:55:40;98257.75;;;5.47;100.00
76050;BME280;64967;50.234;19.224;2023-04-16T04:58:07;98266.63;;;5.47;100.00
76050;BME280;64967;50.234;19.224;2023-04-16T05:00:34;98262.94;;;5.48;100.00
76050;BME280;64967;50.234;19.224;2023-04-16T05:03:04;98264.72;;;5.56;100.00
76050;BME280;64967;50.234;19.224;2023-04-16T05:05:31;98265.03;;;5.61;100.00
76050;BME280;64967;50.234;19.224;2023-04-16T05:07:58;98269.50;;;5.68;100.00
76050;BME280;64967;50.234;19.224;2023-04-16T05:10:26;98271.47;;;5.74;100.00
76050;BME280;64967;50.234;19.224;2023-04-16T05:12:53;98268.91;;;5.81;100.00
76050;BME280;64967;50.234;19.224;2023-04-16T05:15:20;98268.56;;;5.84;100.00
76050;BME280;64967;50.234;19.224;2023-04-16T05:17:47;98281.94;;;5.92;100.00
76050;BME280;64967;50.234;19.224;2023-04-16T05:20:14;98281.78;;;5.94;100.00
76050;BME280;64967;50.234;19.224;2023-04-16T05:22:41;98277.50;;;5.99;100.00
76050;BME280;64967;50.234;19.224;2023-04-16T05:25:08;98285.22;;;6.02;100.00
76050;BME280;64967;50.234;19.224;2023-04-16T05:27:36;98297.09;;;6.08;100.00
76050;BME280;64967;50.234;19.224;2023-04-16T05:30:03;98290.50;;;6.10;100.00
76050;BME280;64967;50.234;19.224;2023-04-16T05:32:30;98291.81;;;6.14;100.00
76050;BME280;64967;50.234;19.224;2023-04-16T05:34:57;98282.75;;;6.15;100.00
76050;BME280;64967;50.234;19.224;2023-04-16T05:37:24;98282.84;;;6.22;100.00
76050;BME280;64967;50.234;19.224;2023-04-16T05:39:52;98281.31;;;6.27;100.00
76050;BME280;64967;50.234;19.224;2023-04-16T05:42:20;98278.53;;;6.36;100.00
76050;BME280;64967;50.234;19.224;2023-04-16T05:44:47;98284.94;;;6.49;100.00
76050;BME280;64967;50.234;19.224;2023-04-16T05:47:14;98293.59;;;6.59;100.00
76050;BME280;64967;50.234;19.224;2023-04-16T05:49:41;98290.63;;;6.69;100.00
76050;BME280;64967;50.234;19.224;2023-04-16T05:52:08;98294.34;;;6.83;100.00
76050;BME280;64967;50.234;19.224;2023-04-16T05:54:35;98295.66;;;7.01;100.00
76050;BME280;64967;50.234;19.224;2023-04-16T05:57:02;98295.16;;;7.27;100.00
76050;BME280;64967;50.234;19.224;2023-04-16T05:59:29;98303.28;;;7.48;100.00
76050;BME280;64967;50.234;19.224;2023-04-16T06:01:56;98299.81;;;7.69;100.00
76050;BME280;64967;50.234;19.224;2023-04-16T06:04:23;98314.31;;;7.89;100.00
76050;BME280;64967;50.234;19.224;2023-04-16T06:06:50;98315.53;;;8.08;100.00
76050;BME280;64967;50.234;19.224;2023-04-16T06:09:17;98321.47;;;8.25;100.00
76050;BME280;64967;50.234;19.224;2023-04-16T06:11:44;98327.66;;;8.40;100.00
76050;BME280;64967;50.234;19.224;2023-04-16T06:14:11;98328.44;;;8.55;100.00
76050;BME280;64967;50.234;19.224;2023-04-16T06:16:38;98335.19;;;8.72;99.94
76050;BME280;64967;50.234;19.224;2023-04-16T06:19:05;98293.34;;;8.76;99.94
76050;BME280;64967;50.234;19.224;2023-04-16T06:21:33;98331.03;;;9.32;98.01
76050;BME280;64967;50.234;19.224;2023-04-16T06:24:00;98333.63;;;9.53;96.08
76050;BME280;64967;50.234;19.224;2023-04-16T06:26:27;98326.72;;;9.44;93.41
76050;BME280;64967;50.234;19.224;2023-04-16T06:28:54;98337.72;;;9.43;93.65
76050;BME280;64967;50.234;19.224;2023-04-16T06:31:21;98343.09;;;9.43;93.71
76050;BME280;64967;50.234;19.224;2023-04-16T06:33:49;98350.94;;;9.31;93.55
76050;BME280;64967;50.234;19.224;2023-04-16T06:36:15;98349.56;;;9.48;96.07
76050;BME280;64967;50.234;19.224;2023-04-16T06:38:42;98339.97;;;9.86;96.57
76050;BME280;64967;50.234;19.224;2023-04-16T06:41:09;98343.84;;;10.25;94.07
76050;BME280;64967;50.234;19.224;2023-04-16T06:43:36;98345.72;;;10.38;90.43
76050;BME280;64967;50.234;19.224;2023-04-16T06:46:03;98333.03;;;10.45;90.36
76050;BME280;64967;50.234;19.224;2023-04-16T06:48:30;98339.31;;;10.85;88.98
76050;BME280;64967;50.234;19.224;2023-04-16T06:50:57;98328.44;;;11.11;88.31
76050;BME280;64967;50.234;19.224;2023-04-16T06:53:24;98330.94;;;11.26;86.47
76050;BME280;64967;50.234;19.224;2023-04-16T06:55:51;98335.50;;;11.25;87.28
76050;BME280;64967;50.234;19.224;2023-04-16T06:58:18;98333.84;;;11.11;86.05
76050;BME280;64967;50.234;19.224;2023-04-16T07:00:45;98341.97;;;11.11;86.77
76050;BME280;64967;50.234;19.224;2023-04-16T07:03:13;98342.19;;;10.77;89.10
76050;BME280;64967;50.234;19.224;2023-04-16T07:05:40;98338.66;;;10.83;87.96
76050;BME280;64967;50.234;19.224;2023-04-16T07:08:07;98344.28;;;10.74;88.55
76050;BME280;64967;50.234;19.224;2023-04-16T07:10:34;98336.81;;;10.70;89.07
76050;BME280;64967;50.234;19.224;2023-04-16T07:13:01;98344.50;;;10.80;88.75
76050;BME280;64967;50.234;19.224;2023-04-16T07:15:28;98347.19;;;10.99;88.10
76050;BME280;64967;50.234;19.224;2023-04-16T07:17:55;98349.72;;;10.74;88.96
76050;BME280;64967;50.234;19.224;2023-04-16T07:20:22;98345.50;;;11.05;90.85
76050;BME280;64967;50.234;19.224;2023-04-16T07:22:49;98355.47;;;11.24;88.52
76050;BME280;64967;50.234;19.224;2023-04-16T07:25:16;98357.31;;;11.43;86.89
76050;BME280;64967;50.234;19.224;2023-04-16T07:27:43;98362.91;;;11.48;86.60
76050;BME280;64967;50.234;19.224;2023-04-16T07:30:10;98360.44;;;11.40;86.97
76050;BME280;64967;50.234;19.224;2023-04-16T07:32:37;98361.81;;;11.76;87.15
76050;BME280;64967;50.234;19.224;2023-04-16T07:35:04;98357.72;;;12.11;86.19
76050;BME280;64967;50.234;19.224;2023-04-16T07:37:31;98358.41;;;12.31;85.36
76050;BME280;64967;50.234;19.224;2023-04-16T07:39:58;98370.06;;;11.94;82.49
76050;BME280;64967;50.234;19.224;2023-04-16T07:42:26;98367.31;;;12.38;85.47
76050;BME280;64967;50.234;19.224;2023-04-16T07:44:54;98372.06;;;12.74;82.59
76050;BME280;64967;50.234;19.224;2023-04-16T07:47:21;98373.94;;;13.05;80.81
76050;BME280;64967;50.234;19.224;2023-04-16T07:49:48;98377.06;;;13.02;80.54
76050;BME280;64967;50.234;19.224;2023-04-16T07:52:16;98385.78;;;13.11;81.04
76050;BME280;64967;50.234;19.224;2023-04-16T07:54:43;98373.00;;;13.18;80.06
76050;BME280;64967;50.234;19.224;2023-04-16T07:57:10;98383.69;;;13.13;80.93
76050;BME280;64967;50.234;19.224;2023-04-16T07:59:38;98388.78;;;13.27;79.58
76050;BME280;64967;50.234;19.224;2023-04-16T08:02:05;98386.06;;;13.27;79.87
76050;BME280;64967;50.234;19.224;2023-04-16T08:04:34;98391.00;;;13.37;80.52
76050;BME280;64967;50.234;19.224;2023-04-16T08:07:01;98399.91;;;13.62;79.51
76050;BME280;64967;50.234;19.224;2023-04-16T08:09:28;98397.53;;;13.91;77.63
76050;BME280;64967;50.234;19.224;2023-04-16T08:11:55;98394.16;;;14.07;78.27
76050;BME280;64967;50.234;19.224;2023-04-16T08:14:23;98404.50;;;14.16;74.69
76050;BME280;64967;50.234;19.224;2023-04-16T08:16:50;98393.94;;;14.26;75.93
76050;BME280;64967;50.234;19.224;2023-04-16T08:19:17;98396.50;;;14.21;78.90
76050;BME280;64967;50.234;19.224;2023-04-16T08:21:44;98397.25;;;14.10;77.30
76050;BME280;64967;50.234;19.224;2023-04-16T08:24:11;98385.00;;;14.19;75.06
76050;BME280;64967;50.234;19.224;2023-04-16T08:26:38;98397.56;;;14.39;75.88
76050;BME280;64967;50.234;19.224;2023-04-16T08:29:05;98401.53;;;14.54;75.03
76050;BME280;64967;50.234;19.224;2023-04-16T08:31:32;98400.38;;;14.62;74.08
76050;BME280;64967;50.234;19.224;2023-04-16T08:33:59;98395.63;;;14.09;75.79
76050;BME280;64967;50.234;19.224;2023-04-16T08:36:26;98405.28;;;13.87;74.26
76050;BME280;64967;50.234;19.224;2023-04-16T08:38:53;98408.81;;;13.88;75.03
76050;BME280;64967;50.234;19.224;2023-04-16T08:41:21;98398.03;;;14.17;72.85
76050;BME280;64967;50.234;19.224;2023-04-16T08:43:49;98410.81;;;13.99;75.62
76050;BME280;64967;50.234;19.224;2023-04-16T08:46:20;98406.47;;;13.36;71.60
76050;BME280;64967;50.234;19.224;2023-04-16T08:48:48;98407.13;;;12.76;74.75
76050;BME280;64967;50.234;19.224;2023-04-16T08:51:21;98411.03;;;12.86;72.35
76050;BME280;64967;50.234;19.224;2023-04-16T08:53:51;98408.16;;;13.06;74.62
76050;BME280;64967;50.234;19.224;2023-04-16T08:56:20;98412.66;;;13.44;73.11
76050;BME280;64967;50.234;19.224;2023-04-16T08:58:50;98412.69;;;13.62;71.52
76050;BME280;64967;50.234;19.224;2023-04-16T09:01:17;98401.56;;;13.45;72.36
76050;BME280;64967;50.234;19.224;2023-04-16T09:03:46;98411.38;;;13.82;72.08
76050;BME280;64967;50.234;19.224;2023-04-16T09:06:14;98413.41;;;14.23;71.20
76050;BME280;64967;50.234;19.224;2023-04-16T09:08:45;98428.69;;;13.88;69.54
76050;BME280;64967;50.234;19.224;2023-04-16T09:11:12;98423.81;;;13.35;70.05
76050;BME280;64967;50.234;19.224;2023-04-16T09:13:40;98429.66;;;13.57;69.51
76050;BME280;64967;50.234;19.224;2023-04-16T09:16:07;98429.31;;;13.47;70.53
76050;BME280;64967;50.234;19.224;2023-04-16T09:18:35;98419.13;;;13.43;68.59
76050;BME280;64967;50.234;19.224;2023-04-16T09:21:02;98421.78;;;13.00;67.70
76050;BME280;64967;50.234;19.224;2023-04-16T09:23:30;98425.34;;;12.37;72.06
76050;BME280;64967;50.234;19.224;2023-04-16T09:25:58;98417.59;;;12.34;71.51
76050;BME280;64967;50.234;19.224;2023-04-16T09:28:42;98420.88;;;12.49;70.26
76050;BME280;64967;50.234;19.224;2023-04-16T09:31:11;98420.13;;;12.36;70.01
76050;BME280;64967;50.234;19.224;2023-04-16T09:33:39;98425.00;;;12.52;67.94
76050;BME280;64967;50.234;19.224;2023-04-16T09:36:06;98427.97;;;12.82;67.93
76050;BME280;64967;50.234;19.224;2023-04-16T09:38:50;98435.06;;;12.83;65.68
76050;BME280;64967;50.234;19.224;2023-04-16T09:41:18;98428.81;;;13.07;66.04
76050;BME280;64967;50.234;19.224;2023-04-16T09:46:36;98424.28;;;14.05;65.94
76050;BME280;64967;50.234;19.224;2023-04-16T09:49:12;98414.94;;;14.67;65.62
76050;BME280;64967;50.234;19.224;2023-04-16T09:51:43;98408.56;;;14.73;62.97
76050;BME280;64967;50.234;19.224;2023-04-16T09:54:11;98411.16;;;15.33;64.97
76050;BME280;64967;50.234;19.224;2023-04-16T09:56:40;98415.63;;;14.63;64.46
76050;BME280;64967;50.234;19.224;2023-04-16T09:59:10;98426.63;;;14.68;70.40
76050;BME280;64967;50.234;19.224;2023-04-16T10:01:42;98424.84;;;13.77;68.26
76050;BME280;64967;50.234;19.224;2023-04-16T10:04:11;98407.59;;;13.47;68.40
76050;BME280;64967;50.234;19.224;2023-04-16T10:06:38;98426.56;;;13.54;70.60
76050;BME280;64967;50.234;19.224;2023-04-16T10:09:08;98418.50;;;13.22;69.16
76050;BME280;64967;50.234;19.224;2023-04-16T10:11:36;98424.25;;;13.32;70.26
76050;BME280;64967;50.234;19.224;2023-04-16T10:14:03;98422.41;;;13.26;67.50
76050;BME280;64967;50.234;19.224;2023-04-16T10:16:31;98427.16;;;13.56;70.34
76050;BME280;64967;50.234;19.224;2023-04-16T10:18:59;98430.19;;;13.66;68.67
76050;BME280;64967;50.234;19.224;2023-04-16T10:21:26;98411.28;;;13.10;67.48
76050;BME280;64967;50.234;19.224;2023-04-16T10:24:00;98432.34;;;12.83;67.44
76050;BME280;64967;50.234;19.224;2023-04-16T10:26:29;98436.47;;;12.61;68.27
76050;BME280;64967;50.234;19.224;2023-04-16T10:28:57;98438.53;;;12.65;67.86
76050;BME280;64967;50.234;19.224;2023-04-16T10:31:25;98437.44;;;12.73;67.33
76050;BME280;64967;50.234;19.224;2023-04-16T10:33:53;98438.69;;;12.70;65.75
76050;BME280;64967;50.234;19.224;2023-04-16T10:36:23;98439.88;;;12.81;64.94
76050;BME280;64967;50.234;19.224;2023-04-16T10:38:57;98444.06;;;13.08;64.04
76050;BME280;64967;50.234;19.224;2023-04-16T10:41:25;98454.94;;;13.02;66.08
76050;BME280;64967;50.234;19.224;2023-04-16T10:43:52;98440.50;;;13.14;64.09
76050;BME280;64967;50.234;19.224;2023-04-16T10:46:35;98448.16;;;13.42;63.69
76050;BME280;64967;50.234;19.224;2023-04-16T10:51:57;98447.66;;;13.95;62.16
76050;BME280;64967;50.234;19.224;2023-04-16T10:54:31;98455.81;;;14.13;61.93
76050;BME280;64967;50.234;19.224;2023-04-16T10:57:02;98443.56;;;14.22;61.57
76050;BME280;64967;50.234;19.224;2023-04-16T10:59:31;98446.66;;;14.44;63.71
76050;BME280;64967;50.234;19.224;2023-04-16T11:02:06;98445.19;;;14.59;61.47
76050;BME280;64967;50.234;19.224;2023-04-16T11:04:36;98430.28;;;14.62;61.68
76050;BME280;64967;50.234;19.224;2023-04-16T11:12:14;98444.41;;;15.12;60.80
76050;BME280;64967;50.234;19.224;2023-04-16T11:14:42;98454.75;;;15.33;60.55
76050;BME280;64967;50.234;19.224;2023-04-16T11:17:09;98452.13;;;15.50;58.99
76050;BME280;64967;50.234;19.224;2023-04-16T11:19:36;98457.16;;;15.65;57.69
76050;BME280;64967;50.234;19.224;2023-04-16T11:22:04;98455.97;;;15.72;56.79
76050;BME280;64967;50.234;19.224;2023-04-16T11:24:31;98445.66;;;15.86;56.51
76050;BME280;64967;50.234;19.224;2023-04-16T11:26:59;98446.66;;;15.03;54.32
76050;BME280;64967;50.234;19.224;2023-04-16T11:29:27;98450.59;;;15.42;54.15
76050;BME280;64967;50.234;19.224;2023-04-16T11:31:54;98448.84;;;15.48;52.48
76050;BME280;64967;50.234;19.224;2023-04-16T11:34:21;98451.72;;;15.65;54.44
76050;BME280;64967;50.234;19.224;2023-04-16T11:36:50;98453.91;;;16.14;54.71
76050;BME280;64967;50.234;19.224;2023-04-16T11:39:17;98450.09;;;16.27;55.49
76050;BME280;64967;50.234;19.224;2023-04-16T11:41:46;98441.56;;;16.63;55.21
76050;BME280;64967;50.234;19.224;2023-04-16T11:44:19;98445.47;;;16.67;50.28
76050;BME280;64967;50.234;19.224;2023-04-16T11:46:47;98448.69;;;16.13;53.13
76050;BME280;64967;50.234;19.224;2023-04-16T11:49:14;98442.78;;;15.46;53.62
76050;BME280;64967;50.234;19.224;2023-04-16T11:51:46;98450.31;;;15.09;54.26
76050;BME280;64967;50.234;19.224;2023-04-16T11:54:20;98455.31;;;14.82;54.26
76050;BME280;64967;50.234;19.224;2023-04-16T11:56:49;98457.19;;;15.23;55.85
76050;BME280;64967;50.234;19.224;2023-04-16T11:59:18;98454.66;;;15.63;52.57
76050;BME280;64967;50.234;19.224;2023-04-16T12:01:54;98450.38;;;16.02;52.15
76050;BME280;64967;50.234;19.224;2023-04-16T12:04:26;98447.19;;;15.93;52.39
76050;BME280;64967;50.234;19.224;2023-04-16T12:07:12;98448.09;;;15.41;55.42
76050;BME280;64967;50.234;19.224;2023-04-16T12:09:41;98450.06;;;15.10;56.12
76050;BME280;64967;50.234;19.224;2023-04-16T12:12:27;98456.28;;;14.76;55.26
76050;BME280;64967;50.234;19.224;2023-04-16T12:14:57;98453.75;;;14.74;56.60
76050;BME280;64967;50.234;19.224;2023-04-16T12:17:33;98459.13;;;14.81;57.77
76050;BME280;64967;50.234;19.224;2023-04-16T12:20:03;98453.94;;;14.91;55.15
76050;BME280;64967;50.234;19.224;2023-04-16T12:22:35;98449.94;;;15.05;56.00
76050;BME280;64967;50.234;19.224;2023-04-16T12:25:04;98445.19;;;14.89;55.31
76050;BME280;64967;50.234;19.224;2023-04-16T12:30:17;98440.31;;;14.91;57.43
76050;BME280;64967;50.234;19.224;2023-04-16T12:32:47;98442.53;;;15.12;56.85
76050;BME280;64967;50.234;19.224;2023-04-16T12:35:34;98435.91;;;15.32;53.07
76050;BME280;64967;50.234;19.224;2023-04-16T12:38:01;98429.69;;;14.90;51.94
76050;BME280;64967;50.234;19.224;2023-04-16T12:40:29;98435.75;;;15.03;52.99
76050;BME280;64967;50.234;19.224;2023-04-16T12:42:56;98420.84;;;15.17;52.18
76050;BME280;64967;50.234;19.224;2023-04-16T12:45:24;98435.06;;;15.08;53.02
76050;BME280;64967;50.234;19.224;2023-04-16T12:47:51;98437.06;;;15.12;54.45
76050;BME280;64967;50.234;19.224;2023-04-16T12:50:18;98429.03;;;15.41;53.20
76050;BME280;64967;50.234;19.224;2023-04-16T12:52:45;98432.22;;;15.14;54.92
76050;BME280;64967;50.234;19.224;2023-04-16T12:55:12;98429.44;;;15.56;54.14
76050;BME280;64967;50.234;19.224;2023-04-16T12:57:40;98423.34;;;15.42;54.21
76050;BME280;64967;50.234;19.224;2023-04-16T13:00:07;98428.00;;;15.77;54.30
76050;BME280;64967;50.234;19.224;2023-04-16T13:02:36;98421.44;;;16.01;49.10
76050;BME280;64967;50.234;19.224;2023-04-16T13:05:03;98425.13;;;16.06;50.51
76050;BME280;64967;50.234;19.224;2023-04-16T13:07:30;98423.50;;;15.82;51.13
76050;BME280;64967;50.234;19.224;2023-04-16T13:09:59;98406.56;;;15.80;51.28
76050;BME280;64967;50.234;19.224;2023-04-16T13:12:26;98420.41;;;15.79;54.89